createdAt,value
2022-10-06T00:02:00.244Z,80.61
2022-10-06T00:04:32.102Z,80.21
2022-10-06T00:07:04.161Z,80.31
2022-10-06T00:09:36.059Z,79.65
2022-10-06T00:12:08.481Z,79.66
2022-10-06T00:14:40.476Z,79.85
2022-10-06T00:17:12.357Z,80.02
2022-10-06T00:19:44.194Z,80.23
2022-10-06T00:22:16.356Z,79.72
2022-10-06T00:24:48.158Z,79.21
2022-10-06T00:27:20.405Z,79.08
2022-10-06T00:29:52.789Z,79.31
2022-10-06T00:32:24.772Z,78.70
2022-10-06T00:34:58.437Z,77.89
2022-10-06T00:37:32.484Z,77.65
2022-10-06T00:40:06.893Z,78.10
2022-10-06T00:43:01.542Z,78.55
2022-10-06T00:45:36.364Z,78.89
2022-10-06T00:48:19.814Z,78.67
2022-10-06T00:50:54.587Z,78.75
2022-10-06T00:53:31.415Z,79.09
2022-10-06T00:56:03.401Z,78.06
2022-10-06T00:58:35.768Z,77.93
2022-10-06T01:01:09.948Z,78.20
2022-10-06T01:03:51.008Z,78.31
2022-10-06T01:06:22.961Z,78.58
2022-10-06T01:08:55.288Z,78.46
2022-10-06T01:11:27.249Z,78.04
2022-10-06T01:13:59.538Z,78.29
2022-10-06T01:16:34.038Z,78.75
2022-10-06T01:19:10.568Z,79.13
2022-10-06T01:21:46.295Z,78.86
2022-10-06T01:24:19.338Z,78.62
2022-10-06T01:26:53.922Z,78.62
2022-10-06T01:29:25.827Z,78.68
2022-10-06T01:31:58.151Z,78.99
2022-10-06T01:34:30.207Z,78.26
2022-10-06T01:37:03.090Z,78.00
2022-10-06T01:39:35.077Z,78.58
2022-10-06T01:42:07.306Z,78.65
2022-10-06T01:44:39.291Z,78.90
2022-10-06T01:47:11.530Z,78.58
2022-10-06T01:49:43.484Z,78.57
2022-10-06T01:52:15.969Z,78.65
2022-10-06T01:54:48.062Z,78.74
2022-10-06T01:57:21.455Z,78.12
2022-10-06T01:59:54.983Z,77.66
2022-10-06T02:02:27.197Z,78.09
2022-10-06T02:04:59.081Z,77.86
2022-10-06T02:07:32.392Z,76.91
2022-10-06T02:10:05.822Z,77.20
2022-10-06T02:12:38.357Z,77.50
2022-10-06T02:15:12.359Z,77.71
2022-10-06T02:17:44.375Z,77.72
2022-10-06T02:20:16.566Z,78.33
2022-10-06T02:22:48.528Z,78.57
2022-10-06T02:25:21.928Z,78.62
2022-10-06T02:27:56.074Z,78.30
2022-10-06T02:30:28.092Z,79.04
2022-10-06T02:33:00.534Z,78.27
2022-10-06T02:35:33.246Z,78.03
2022-10-06T02:38:05.592Z,78.34
2022-10-06T02:40:37.597Z,78.47
2022-10-06T02:43:09.683Z,78.03
2022-10-06T02:45:43.412Z,78.26
2022-10-06T02:48:16.761Z,78.14
2022-10-06T02:51:00.191Z,78.10
2022-10-06T02:53:32.140Z,77.88
2022-10-06T02:56:06.980Z,77.62
2022-10-06T02:58:43.226Z,77.77
2022-10-06T03:01:18.828Z,77.27
2022-10-06T03:03:51.444Z,77.65
2022-10-06T03:06:26.622Z,77.28
2022-10-06T03:09:08.401Z,77.64
2022-10-06T03:11:43.751Z,77.27
2022-10-06T03:14:21.553Z,77.58
2022-10-06T03:16:56.793Z,78.08
2022-10-06T03:19:30.497Z,77.68
2022-10-06T03:22:03.090Z,77.22
2022-10-06T03:24:43.080Z,77.08
2022-10-06T03:27:15.765Z,77.48
2022-10-06T03:29:47.801Z,77.23
2022-10-06T03:32:20.259Z,77.64
2022-10-06T03:34:53.456Z,77.30
2022-10-06T03:37:25.688Z,77.01
2022-10-06T03:39:58.145Z,77.00
2022-10-06T03:42:30.350Z,76.85
2022-10-06T03:45:02.592Z,76.97
2022-10-06T03:47:34.531Z,77.00
2022-10-06T03:50:06.837Z,76.80
2022-10-06T03:52:38.897Z,76.71
2022-10-06T03:55:11.160Z,77.21
2022-10-06T03:57:44.330Z,77.14
2022-10-06T04:00:16.780Z,77.69
2022-10-06T04:02:51.440Z,77.56
2022-10-06T04:05:23.558Z,77.63
2022-10-06T04:07:55.701Z,77.34
2022-10-06T04:10:28.127Z,77.33
2022-10-06T04:13:00.193Z,76.85
2022-10-06T04:15:33.301Z,76.61
2022-10-06T04:18:05.504Z,77.06
2022-10-06T04:20:37.483Z,76.78
2022-10-06T04:23:10.855Z,76.37
2022-10-06T04:25:42.967Z,76.37
2022-10-06T04:28:15.753Z,76.41
2022-10-06T04:30:50.999Z,76.09
2022-10-06T04:33:23.579Z,75.97
2022-10-06T04:36:03.471Z,75.66
2022-10-06T04:38:37.549Z,75.51
2022-10-06T04:41:18.872Z,75.89
2022-10-06T04:43:52.653Z,76.25
2022-10-06T04:46:43.749Z,75.68
2022-10-06T04:49:01.083Z,75.94
2022-10-06T04:51:34.613Z,75.49
2022-10-06T04:54:07.361Z,75.91
2022-10-06T04:56:39.718Z,75.54
2022-10-06T04:59:11.930Z,75.25
2022-10-06T05:01:46.516Z,75.88
2022-10-06T05:04:19.493Z,75.59
2022-10-06T05:06:52.024Z,75.59
2022-10-06T05:09:24.116Z,75.50
2022-10-06T05:11:58.925Z,76.10
2022-10-06T05:14:32.847Z,75.66
2022-10-06T05:17:05.310Z,76.01
2022-10-06T05:19:38.753Z,74.94
2022-10-06T05:22:11.404Z,74.58
2022-10-06T05:24:44.326Z,74.27
2022-10-06T05:27:16.402Z,74.29
2022-10-06T05:29:48.962Z,74.08
2022-10-06T05:32:22.034Z,73.50
2022-10-06T05:34:54.468Z,73.66
2022-10-06T05:37:26.457Z,73.42
2022-10-06T05:39:59.236Z,73.63
2022-10-06T05:42:32.700Z,73.26
2022-10-06T05:45:05.346Z,73.17
2022-10-06T05:47:37.669Z,73.42
2022-10-06T05:50:10.390Z,73.26
2022-10-06T05:52:42.398Z,73.62
2022-10-06T05:55:14.605Z,74.06
2022-10-06T05:57:46.785Z,73.31
2022-10-06T06:00:18.948Z,73.42
2022-10-06T06:02:51.116Z,73.25
2022-10-06T06:05:23.411Z,73.31
2022-10-06T06:07:56.089Z,71.98
2022-10-06T06:10:28.487Z,72.02
2022-10-06T06:13:00.950Z,70.97
2022-10-06T06:16:01.731Z,71.38
2022-10-06T06:18:36.925Z,71.66
2022-10-06T06:21:12.655Z,70.84
2022-10-06T06:23:47.230Z,69.56
2022-10-06T06:26:27.956Z,68.97
2022-10-06T06:29:05.539Z,69.33
2022-10-06T06:31:42.435Z,68.24
2022-10-06T06:34:14.586Z,68.63
2022-10-06T06:36:49.836Z,69.52
2022-10-06T06:39:21.746Z,69.15
2022-10-06T06:41:54.770Z,69.46
2022-10-06T06:44:44.651Z,69.84
2022-10-06T06:47:20.832Z,69.77
2022-10-06T06:49:52.434Z,70.59
2022-10-06T06:52:26.207Z,70.07
2022-10-06T06:54:58.633Z,70.21
2022-10-06T06:57:33.781Z,69.96
2022-10-06T07:00:08.252Z,69.63
2022-10-06T07:02:41.850Z,70.16
2022-10-06T07:05:14.191Z,70.34
2022-10-06T07:07:47.969Z,70.80
2022-10-06T07:10:20.088Z,70.48
2022-10-06T07:12:53.017Z,70.52
2022-10-06T07:15:43.796Z,70.03
2022-10-06T07:18:33.863Z,70.02
2022-10-06T07:21:12.175Z,69.88
2022-10-06T07:24:01.885Z,69.89
2022-10-06T07:26:33.972Z,70.21
2022-10-06T07:29:06.732Z,69.64
2022-10-06T07:31:39.433Z,69.70
2022-10-06T07:34:12.084Z,69.74
2022-10-06T07:36:46.195Z,70.08
2022-10-06T07:39:18.175Z,70.06
2022-10-06T07:41:50.151Z,69.93
2022-10-06T07:44:23.201Z,69.28
2022-10-06T07:46:55.618Z,68.36
2022-10-06T07:49:29.430Z,67.41
2022-10-06T07:52:02.702Z,67.09
2022-10-06T07:54:35.046Z,67.51
2022-10-06T07:57:11.839Z,67.84
2022-10-06T07:59:44.559Z,67.54
2022-10-06T08:02:18.164Z,66.71
2022-10-06T08:04:50.763Z,67.10
2022-10-06T08:07:23.512Z,67.71
2022-10-06T08:09:56.276Z,67.61
2022-10-06T08:12:34.142Z,67.08
2022-10-06T08:15:08.515Z,66.99
2022-10-06T08:17:40.673Z,67.43
2022-10-06T08:20:14.660Z,67.69
2022-10-06T08:22:49.293Z,68.07
2022-10-06T08:25:21.871Z,68.22
2022-10-06T08:27:54.358Z,67.53
2022-10-06T08:30:27.237Z,67.73
2022-10-06T08:32:59.260Z,67.80
2022-10-06T08:35:31.493Z,68.92
2022-10-06T08:38:03.866Z,70.06
2022-10-06T08:40:36.422Z,69.50
2022-10-06T08:43:11.231Z,69.48
2022-10-06T08:45:46.019Z,69.11
2022-10-06T08:48:25.061Z,68.36
2022-10-06T08:51:15.436Z,68.37
2022-10-06T08:53:59.800Z,68.54
2022-10-06T08:56:49.912Z,68.50
2022-10-06T08:59:22.671Z,69.01
2022-10-06T09:01:55.110Z,69.19
2022-10-06T09:04:34.361Z,69.42
2022-10-06T09:07:11.584Z,69.56
2022-10-06T09:09:54.887Z,69.55
2022-10-06T09:12:52.313Z,69.69
2022-10-06T09:15:50.556Z,70.01
2022-10-06T09:18:49.886Z,70.10
2022-10-06T09:21:09.862Z,70.45
2022-10-06T09:23:50.380Z,71.60
2022-10-06T09:26:31.388Z,72.15
2022-10-06T09:29:04.710Z,72.12
2022-10-06T09:31:45.392Z,71.82
2022-10-06T09:34:39.223Z,72.31
2022-10-06T09:37:14.230Z,71.61
2022-10-06T09:39:50.323Z,71.31
2022-10-06T09:42:35.226Z,71.89
2022-10-06T09:45:08.234Z,71.60
2022-10-06T09:47:44.356Z,70.97
2022-10-06T09:50:22.320Z,70.77
2022-10-06T09:53:06.205Z,70.17
2022-10-06T09:55:46.892Z,70.19
2022-10-06T09:58:25.121Z,69.87
2022-10-06T10:01:00.538Z,69.55
2022-10-06T10:04:08.497Z,70.17
2022-10-06T10:06:30.215Z,70.19
2022-10-06T10:09:23.142Z,69.84
2022-10-06T10:12:21.797Z,69.70
2022-10-06T10:14:55.317Z,69.86
2022-10-06T10:17:54.091Z,68.53
2022-10-06T10:20:43.884Z,67.76
2022-10-06T10:23:31.624Z,67.80
2022-10-06T10:26:09.812Z,67.81
2022-10-06T10:28:57.026Z,66.42
2022-10-06T10:31:52.706Z,65.79
2022-10-06T10:34:46.911Z,63.58
2022-10-06T10:37:36.460Z,63.31
2022-10-06T10:40:28.019Z,62.17
2022-10-06T10:43:22.267Z,61.40
2022-10-06T10:46:00.201Z,60.99
2022-10-06T10:48:46.611Z,61.14
2022-10-06T10:51:24.123Z,60.34
2022-10-06T10:54:08.285Z,61.26
2022-10-06T10:56:40.672Z,61.26
2022-10-06T10:59:24.464Z,62.21
2022-10-06T11:01:59.461Z,62.58
2022-10-06T11:04:31.953Z,63.53
2022-10-06T11:07:06.925Z,64.23
2022-10-06T11:10:14.915Z,64.22
2022-10-06T11:13:21.568Z,64.97
2022-10-06T11:16:00.178Z,65.65
2022-10-06T11:18:50.382Z,65.12
2022-10-06T11:21:31.605Z,65.36
2022-10-06T11:24:21.295Z,65.36
2022-10-06T11:27:05.227Z,65.87
2022-10-06T11:30:00.252Z,64.97
2022-10-06T11:32:39.759Z,65.76
2022-10-06T11:35:20.521Z,65.27
2022-10-06T11:38:11.949Z,65.02
2022-10-06T11:40:58.830Z,65.51
2022-10-06T11:43:36.660Z,64.97
2022-10-06T11:46:20.397Z,64.90
2022-10-06T11:48:52.554Z,65.85
2022-10-06T11:51:29.931Z,65.85
2022-10-06T11:54:02.457Z,66.32
2022-10-06T11:56:38.773Z,66.90
2022-10-06T11:59:16.872Z,66.62
2022-10-06T12:01:51.303Z,66.25
2022-10-06T12:04:24.648Z,66.26
2022-10-06T12:07:00.854Z,66.06
2022-10-06T12:09:45.513Z,65.56
2022-10-06T12:12:20.982Z,65.21
2022-10-06T12:17:05.069Z,65.33
2022-10-06T12:17:42.725Z,66.11
2022-10-06T12:20:17.933Z,65.86
2022-10-06T12:22:55.782Z,65.48
2022-10-06T12:25:37.399Z,64.23
2022-10-06T12:28:17.916Z,64.89
2022-10-06T12:31:22.443Z,64.62
2022-10-06T12:33:56.208Z,64.62
2022-10-06T12:36:32.234Z,64.33
2022-10-06T12:39:07.560Z,63.99
2022-10-06T12:42:00.677Z,64.45
2022-10-06T12:44:45.158Z,64.48
2022-10-06T12:47:32.635Z,64.73
2022-10-06T12:50:28.499Z,64.05
2022-10-06T12:53:06.414Z,64.39
2022-10-06T12:55:44.897Z,64.72
2022-10-06T12:58:22.636Z,65.49
2022-10-06T13:00:56.680Z,65.85
2022-10-06T13:03:29.996Z,65.73
2022-10-06T13:06:04.859Z,65.98
2022-10-06T13:08:39.166Z,66.63
2022-10-06T13:11:26.489Z,66.81
2022-10-06T13:14:01.309Z,66.87
2022-10-06T13:16:37.321Z,66.87
2022-10-06T13:19:24.174Z,66.98
2022-10-06T13:21:56.496Z,67.19
2022-10-06T13:24:28.846Z,67.56
2022-10-06T13:27:03.389Z,67.23
2022-10-06T13:29:35.570Z,67.67
2022-10-06T13:32:13.281Z,68.27
2022-10-06T13:34:46.076Z,68.30
2022-10-06T13:37:18.671Z,68.07
2022-10-06T13:39:51.255Z,67.63
2022-10-06T13:42:23.518Z,67.85
2022-10-06T13:45:01.773Z,68.10
2022-10-06T13:47:34.739Z,68.09
2022-10-06T13:50:19.814Z,68.09
2022-10-06T13:52:50.760Z,67.59
2022-10-06T13:55:28.781Z,67.72
2022-10-06T13:58:06.800Z,67.79
2022-10-06T14:01:00.953Z,67.45
2022-10-06T14:03:37.854Z,67.45
2022-10-06T14:06:18.978Z,68.09
2022-10-06T14:08:56.948Z,68.43
2022-10-06T14:11:31.799Z,68.49
2022-10-06T14:14:07.007Z,68.82
2022-10-06T14:16:39.329Z,68.93
2022-10-06T14:19:33.090Z,68.96
2022-10-06T14:22:07.766Z,69.17
2022-10-06T14:24:43.411Z,69.49
2022-10-06T14:27:15.397Z,69.51
2022-10-06T14:29:47.306Z,69.43
2022-10-06T14:32:20.464Z,69.00
2022-10-06T14:34:52.911Z,68.87
2022-10-06T14:37:25.091Z,69.05
2022-10-06T14:39:57.712Z,69.09
2022-10-06T14:42:29.876Z,68.96
2022-10-06T14:45:03.266Z,69.08
2022-10-06T14:47:35.943Z,69.17
2022-10-06T14:50:08.893Z,69.79
2022-10-06T14:52:41.443Z,69.77
2022-10-06T14:55:13.631Z,69.33
2022-10-06T14:57:45.704Z,69.55
2022-10-06T15:00:19.731Z,69.58
2022-10-06T15:02:52.029Z,69.57
2022-10-06T15:05:25.001Z,69.74
2022-10-06T15:08:12.130Z,69.69
2022-10-06T15:10:47.557Z,69.86
2022-10-06T15:13:20.006Z,69.75
2022-10-06T15:15:54.997Z,69.96
2022-10-06T15:18:27.210Z,69.75
2022-10-06T15:21:04.516Z,70.18
2022-10-06T15:23:37.511Z,70.49
2022-10-06T15:26:28.784Z,70.52
2022-10-06T15:29:06.424Z,70.43
2022-10-06T15:31:40.693Z,70.59
2022-10-06T15:34:14.658Z,70.26
2022-10-06T15:36:46.723Z,70.65
2022-10-06T15:39:19.284Z,70.29
2022-10-06T15:41:51.557Z,69.97
2022-10-06T15:44:23.891Z,70.31
2022-10-06T15:46:58.178Z,70.26
2022-10-06T15:49:32.494Z,70.31
2022-10-06T15:52:05.325Z,70.41
2022-10-06T15:54:41.638Z,70.64
2022-10-06T15:57:20.363Z,70.71
2022-10-06T15:59:48.653Z,70.61
2022-10-06T16:02:21.463Z,70.16
2022-10-06T16:04:56.634Z,70.28
2022-10-06T16:07:30.646Z,70.56
2022-10-06T16:10:02.862Z,71.10
2022-10-06T16:12:34.861Z,70.15
2022-10-06T16:15:07.988Z,70.70
2022-10-06T16:17:40.129Z,70.71
2022-10-06T16:20:12.524Z,70.36
2022-10-06T16:22:44.505Z,70.42
2022-10-06T16:25:16.480Z,70.33
2022-10-06T16:27:48.543Z,70.21
2022-10-06T16:30:20.608Z,70.02
2022-10-06T16:32:53.214Z,70.59
2022-10-06T16:35:25.536Z,70.60
2022-10-06T16:37:57.857Z,70.80
2022-10-06T16:40:30.098Z,70.85
2022-10-06T16:43:02.260Z,70.86
2022-10-06T16:45:34.752Z,71.15
2022-10-06T16:48:07.275Z,71.09
2022-10-06T16:50:39.388Z,71.20
2022-10-06T16:53:16.794Z,70.64
2022-10-06T16:55:46.892Z,70.12
2022-10-06T16:58:18.929Z,70.49
2022-10-06T17:00:58.657Z,70.39
2022-10-06T17:03:30.976Z,70.60
2022-10-06T17:06:05.094Z,70.61
2022-10-06T17:08:37.442Z,70.92
2022-10-06T17:11:14.802Z,70.36
2022-10-06T17:13:48.724Z,70.57
2022-10-06T17:16:23.379Z,70.71
2022-10-06T17:18:57.148Z,71.03
2022-10-06T17:21:45.493Z,71.14
2022-10-06T17:24:04.067Z,71.17
2022-10-06T17:26:41.188Z,70.46
2022-10-06T17:29:21.919Z,71.22
2022-10-06T17:31:56.575Z,71.37
2022-10-06T17:34:32.434Z,71.60
2022-10-06T17:37:03.865Z,70.80
2022-10-06T17:39:36.146Z,71.52
2022-10-06T17:42:08.316Z,71.96
2022-10-06T17:44:40.684Z,72.24
2022-10-06T17:47:13.403Z,72.36
2022-10-06T17:49:45.631Z,72.14
2022-10-06T17:52:23.899Z,72.33
2022-10-06T17:54:54.550Z,72.15
2022-10-06T17:57:28.173Z,72.18
2022-10-06T18:00:00.728Z,72.31
2022-10-06T18:02:34.811Z,72.36
2022-10-06T18:05:07.078Z,72.21
2022-10-06T18:07:39.961Z,72.33
2022-10-06T18:10:29.554Z,72.58
2022-10-06T18:13:01.686Z,72.72
2022-10-06T18:15:37.871Z,72.59
2022-10-06T18:18:10.099Z,72.76
2022-10-06T18:20:42.600Z,72.48
2022-10-06T18:23:14.861Z,72.63
2022-10-06T18:25:46.908Z,72.57
2022-10-06T18:28:19.421Z,72.81
2022-10-06T18:30:52.120Z,72.84
2022-10-06T18:36:15.500Z,73.10
2022-10-06T18:38:35.164Z,73.55
2022-10-06T18:41:09.968Z,73.84
2022-10-06T18:43:42.228Z,74.10
2022-10-06T18:46:33.220Z,74.22
2022-10-06T18:49:12.123Z,74.29
2022-10-06T18:51:58.270Z,74.13
2022-10-06T18:54:30.396Z,73.92
2022-10-06T18:57:02.489Z,74.13
2022-10-06T18:59:35.398Z,74.41
2022-10-06T19:02:07.652Z,74.33
2022-10-06T19:04:42.899Z,74.08
2022-10-06T19:07:15.001Z,74.43
2022-10-06T19:09:47.705Z,74.24
2022-10-06T19:12:19.697Z,74.26
2022-10-06T19:14:51.801Z,74.13
2022-10-06T19:17:25.680Z,74.32
2022-10-06T19:19:57.784Z,74.48
2022-10-06T19:22:29.842Z,74.68
2022-10-06T19:25:01.841Z,74.48
2022-10-06T19:27:35.264Z,74.53
2022-10-06T19:30:08.002Z,74.43
2022-10-06T19:32:40.826Z,74.15
2022-10-06T19:35:12.905Z,74.15
2022-10-06T19:37:45.592Z,74.41
2022-10-06T19:40:18.047Z,74.28
2022-10-06T19:42:51.328Z,74.19
2022-10-06T19:45:23.346Z,74.18
2022-10-06T19:47:56.967Z,74.16
2022-10-06T19:50:29.514Z,73.95
2022-10-06T19:53:01.861Z,74.20
2022-10-06T19:55:34.168Z,73.93
2022-10-06T19:58:06.228Z,73.55
2022-10-06T20:00:38.291Z,73.64
2022-10-06T20:03:10.326Z,73.79
2022-10-06T20:05:42.296Z,73.36
2022-10-06T20:08:14.434Z,73.49
2022-10-06T20:10:46.698Z,73.56
2022-10-06T20:13:19.447Z,73.17
2022-10-06T20:15:52.238Z,73.33
2022-10-06T20:18:25.525Z,73.17
2022-10-06T20:20:59.020Z,73.04
2022-10-06T20:23:31.928Z,73.37
2022-10-06T20:26:14.664Z,73.31
2022-10-06T20:28:48.493Z,73.26
2022-10-06T20:31:23.130Z,73.35
2022-10-06T20:33:56.645Z,73.47
2022-10-06T20:36:30.086Z,73.01
2022-10-06T20:39:20.435Z,73.12
2022-10-06T20:41:53.396Z,73.68
2022-10-06T20:44:25.752Z,73.69
2022-10-06T20:46:57.740Z,74.25
2022-10-06T20:49:29.920Z,74.81
2022-10-06T20:52:02.937Z,74.99
2022-10-06T20:54:37.874Z,74.63
2022-10-06T20:57:09.978Z,74.93
2022-10-06T20:59:42.413Z,75.51
2022-10-06T21:02:14.344Z,75.29
2022-10-06T21:04:46.313Z,75.30
2022-10-06T21:07:18.633Z,75.83
2022-10-06T21:09:52.348Z,75.56
2022-10-06T21:12:24.442Z,75.62
2022-10-06T21:14:57.100Z,75.48
2022-10-06T21:17:29.342Z,75.21
2022-10-06T21:20:01.447Z,75.12
2022-10-06T21:22:33.597Z,75.74
2022-10-06T21:25:05.648Z,76.30
2022-10-06T21:27:37.837Z,77.04
2022-10-06T21:30:10.371Z,77.17
2022-10-06T21:32:42.603Z,77.61
2022-10-06T21:35:14.609Z,77.82
2022-10-06T21:37:47.353Z,78.02
2022-10-06T21:40:19.378Z,78.06
2022-10-06T21:42:51.458Z,78.00
2022-10-06T21:45:24.957Z,78.18
2022-10-06T21:47:58.254Z,78.66
2022-10-06T21:50:30.236Z,79.21
2022-10-06T21:53:02.164Z,79.56
2022-10-06T21:55:34.062Z,79.62
2022-10-06T21:58:06.142Z,79.54
2022-10-06T22:00:39.173Z,80.08
2022-10-06T22:03:11.318Z,80.66
2022-10-06T22:05:43.441Z,81.02
2022-10-06T22:08:15.630Z,81.15
2022-10-06T22:10:47.579Z,81.71
2022-10-06T22:13:19.779Z,81.37
2022-10-06T22:15:51.824Z,81.90
2022-10-06T22:18:23.812Z,81.84
2022-10-06T22:20:55.883Z,82.05
2022-10-06T22:23:28.555Z,82.20
2022-10-06T22:26:00.839Z,82.05
2022-10-06T22:28:33.146Z,81.29
2022-10-06T22:31:07.100Z,81.34
2022-10-06T22:33:40.763Z,81.64
2022-10-06T22:36:14.864Z,81.66
2022-10-06T22:38:47.216Z,81.01
2022-10-06T22:41:19.466Z,80.80
2022-10-06T22:43:59.551Z,81.11
2022-10-06T22:46:33.819Z,80.37
2022-10-06T22:49:06.470Z,80.62
2022-10-06T22:51:38.702Z,80.48
2022-10-06T22:54:13.607Z,80.96
2022-10-06T22:56:45.797Z,80.89
2022-10-06T22:59:17.897Z,80.40
2022-10-06T23:01:49.963Z,80.28
2022-10-06T23:04:21.997Z,80.66
2022-10-06T23:06:54.068Z,80.44
2022-10-06T23:09:26.219Z,80.65
2022-10-06T23:11:58.236Z,80.85
2022-10-06T23:14:30.324Z,80.87
2022-10-06T23:17:02.364Z,80.66
2022-10-06T23:19:34.351Z,80.70
2022-10-06T23:22:06.687Z,80.65
2022-10-06T23:24:38.638Z,80.41
2022-10-06T23:27:10.546Z,80.49
2022-10-06T23:29:42.743Z,80.92
2022-10-06T23:32:14.820Z,81.14
2022-10-06T23:34:46.889Z,81.27
2022-10-06T23:37:18.832Z,81.09
2022-10-06T23:39:50.815Z,80.75
2022-10-06T23:42:22.778Z,80.54
2022-10-06T23:44:54.695Z,80.43
2022-10-06T23:47:26.760Z,80.29
2022-10-06T23:49:58.873Z,80.52
2022-10-06T23:52:32.744Z,80.18
2022-10-06T23:55:04.966Z,80.00
2022-10-06T23:57:37.046Z,80.08
